Extended Streamflow Prediction
Issued by NWS Lower Mississippi RFC

Home | Current Version | Previous Version | Text Only | Print | Product List | Glossary On
Versions: 1 2 3 4 5 6 7 8 9 10 11 12 13 14 15 16 17 18 19 20 21 22 23 24 25 26 27 28 29 30 31 32 33 34 35 36 37 38 39 40 41 42 43 44 45 46 47 48 49 50
333
FGUS64 KORN 231509
ESPORN

EXTENDED STREAMFLOW PREDICTION
NATIONAL WEATHER SERVICE RIVER FORECAST CENTER, SLIDELL, LA
1009 AM CDT MON OCT 23 2017

   DATE   CPGM7 CIRI2 NMDM7 TPTT1 CRTM7 OSGA4 MEMT1 TRPM6 HEEA4
10-24-17   21.9  20.0   9.5  12.8  13.1   4.7   5.2  15.8  11.9
10-25-17   21.6  20.8   9.7  12.4  12.7   4.3   4.8  15.5  11.7
10-26-17   21.3  22.0  10.7  13.0  12.8   4.0   4.5  15.1  11.4
10-27-17   21.4  23.3  11.9  14.1  13.7   4.5   4.5  14.9  11.0
10-28-17   21.5  24.4  13.0  15.2  14.7   5.6   5.4  15.3  11.1
10-29-17   21.2  25.0  13.9  16.2  15.6   6.7   6.4  16.3  11.8
10-30-17   20.4  23.2  13.4  16.7  16.5   7.7   7.4  17.2  12.7
10-31-17   19.7  21.7  11.6  15.1  16.0   8.2   8.2  18.1  13.6
11-01-17   19.4  20.8  10.3  13.7  14.4   6.6   7.9  18.6  14.3
11-02-17   19.3  20.1   9.7  12.9  13.3   5.2   6.6  17.6  14.0
11-03-17   19.1  18.9   9.0  12.2  12.7   4.3   5.4  16.3  13.0
11-04-17   18.8  18.2   8.2  11.5  12.1   3.6   4.5  15.3  12.1
11-05-17   18.2  17.6   7.5  10.8  11.4   2.9   3.6  14.4  11.3
11-06-17   17.6  17.0   7.0  10.2  10.8   2.2   3.0  13.8  10.4
11-07-17   16.9  16.4   6.4   9.7  10.3   1.6   2.4  13.2   9.8
11-08-17   16.2  16.1   5.9   9.2   9.8   1.1   1.9  12.6   9.2
11-09-17   15.4  15.8   5.5   8.8   9.4   0.5   1.4  12.1   8.6
11-10-17   15.0  15.5   5.2   8.4   9.0   0.1   0.8  11.6   8.0
11-11-17   14.5  15.2   4.9   8.1   8.7  -0.3   0.4  11.1   7.6
11-12-17   14.1  14.8   4.5   7.8   8.4  -0.6   0.0  10.8   7.1
11-13-17   13.7  14.5   4.2   7.4   8.1  -0.9  -0.3  10.4   6.7
11-14-17   13.4  14.2   3.9   7.1   7.8  -1.3  -0.7  10.1   6.3
11-15-17   13.0  13.9   3.6   6.8   7.5  -1.6  -1.1   9.7   5.9
11-16-17   12.6  13.7   3.4   6.6   7.2  -1.9  -1.4   9.4   5.6
11-17-17   12.1  13.6   3.2   6.4   7.1  -2.2  -1.7   9.1   5.3
11-18-17   11.8  13.4   3.0   6.2   6.9  -2.4  -1.9   8.8   5.0
11-19-17   11.4  13.2   2.8   6.0   6.7  -2.6  -2.1   8.6   4.8
11-20-17   11.1  13.0   2.6   5.8   6.5  -2.8  -2.3   8.4   4.6

   DATE   ARSA4 GEEM6 VCKM6 NTZM6 RRLL1 BTRL1 DONL1 RRVL1 NORL1
10-24-17   10.3  20.6  14.9  22.0  25.0  11.5   7.7   6.5   4.9
10-25-17   10.3  20.7  15.3  22.3  25.3  11.9   7.9   6.5   5.0
10-26-17   10.1  20.6  15.3  22.6  25.5  12.2   8.2   6.7   5.1
10-27-17    9.8  20.4  15.2  22.7  25.8  12.6   8.3   6.8   5.2
10-28-17    9.5  20.1  15.0  22.5  25.9  12.7   8.5   6.9   5.2
10-29-17    9.5  19.9  14.7  22.3  25.8  12.7   8.5   6.9   5.2
10-30-17   10.2  20.2  14.5  22.1  25.6  12.5   8.5   7.0   5.3
10-31-17   11.1  21.0  14.8  21.8  25.3  12.4   8.4   7.0   5.4
11-01-17   11.9  21.9  15.6  22.1  25.1  12.2   8.3   6.9   5.4
11-02-17   12.7  22.6  16.3  22.9  25.4  12.2   8.1   6.8   5.4
11-03-17   12.4  23.0  17.0  23.6  26.1  12.6   8.3   6.8   5.4
11-04-17   11.4  22.1  17.3  24.3  26.7  13.1   8.7   7.0   5.5
11-05-17   10.6  21.3  16.5  24.6  27.4  13.7   9.1   7.3   5.7
11-06-17    9.8  20.6  15.8  23.8  27.7  14.1   9.4   7.6   5.9
11-07-17    9.0  19.8  15.0  23.1  26.9  14.0   9.7   7.9   6.1
11-08-17    8.4  19.1  14.3  22.4  26.3  13.3   9.4   7.9   6.2
11-09-17    7.9  18.5  13.6  21.6  25.6  12.8   9.0   7.6   6.1
11-10-17    7.3  18.0  13.0  21.0  24.9  12.2   8.6   7.4   5.9
11-11-17    6.8  17.4  12.5  20.5  24.3  11.7   8.3   7.1   5.8
11-12-17    6.3  17.0  12.0  20.0  23.8  11.3   8.0   6.8   5.6
11-13-17    5.9  16.6  11.5  19.5  23.3  10.9   7.6   6.6   5.4
11-14-17    5.5  16.2  11.1  19.1  22.8  10.5   7.3   6.4   5.3
11-15-17    5.2  15.8  10.7  18.7  22.4  10.2   7.1   6.1   5.1
11-16-17    4.8  15.5  10.4  18.3  22.1   9.9   6.9   6.0   5.0
11-17-17    4.5  15.1  10.1  18.0  21.7   9.6   6.7   5.9   4.9
11-18-17    4.2  14.9   9.7  17.7  21.4   9.3   6.5   5.7   4.7
11-19-17    4.0  14.6   9.4  17.3  21.1   9.1   6.3   5.6   4.6
11-20-17    3.8  14.4   9.1  17.1  20.8   8.8   6.1   5.5   4.6

NOTE: STAGE FORECASTS ARE BASED ON FUTURE RAINFALL COVERING
THE NEXT 48 HOURS.

END ORN


$$





USA.gov is the U.S. government's official web portal to all federal, state and local government web resources and services.